Time;durP1;ratioP1;P1;durP2;ratioP2;P2;SDS_P1;SDS_P2;PMS_P1;PMS_P2;Temp;Humidity;BMP_temperature;BMP_pressure;BME280_temperature;BME280_humidity;BME280_pressure;Samples;Min_cycle;Max_cycle;Signal;HPM_P1;HPM_P2
2022/06/18 00:01:33;;;;;;;18.87;5.50;;;24.00;26.00;;;;;;5036529;28;20902;-74
2022/06/18 00:04:02;;;;;;;9.67;6.27;;;23.80;27.80;;;;;;5050913;28;20825;-73
2022/06/18 00:06:30;;;;;;;7.70;5.87;;;23.60;28.10;;;;;;5047209;28;20966;-74
2022/06/18 00:08:56;;;;;;;7.63;6.30;;;23.50;27.70;;;;;;5042009;28;20424;-73
2022/06/18 00:14:06;;;;;;;12.77;6.90;;;23.20;27.30;;;;;;5050510;28;20221;-73
2022/06/18 00:16:32;;;;;;;10.27;6.53;;;23.20;28.30;;;;;;5033538;28;20457;-74
2022/06/18 00:18:57;;;;;;;11.57;6.60;;;23.30;28.40;;;;;;5048581;28;20437;-74
2022/06/18 00:21:25;;;;;;;10.37;6.87;;;23.40;28.60;;;;;;5048553;28;20180;-73
2022/06/18 00:23:51;;;;;;;15.87;7.00;;;23.30;27.90;;;;;;5037558;28;20638;-74
2022/06/18 00:26:17;;;;;;;10.07;6.00;;;23.10;28.50;;;;;;5041156;28;20446;-73
2022/06/18 00:28:44;;;;;;;8.23;6.20;;;23.10;27.70;;;;;;5036574;28;20182;-74
2022/06/18 00:31:10;;;;;;;9.30;5.97;;;23.10;28.50;;;;;;5044457;28;20436;-73
2022/06/18 00:33:39;;;;;;;9.43;6.53;;;23.00;29.10;;;;;;5041441;28;20466;-73
2022/06/18 00:36:07;;;;;;;10.87;6.70;;;22.90;28.30;;;;;;5037003;28;20532;-74
2022/06/18 00:38:38;;;;;;;8.83;6.53;;;22.90;28.70;;;;;;5042396;28;20474;-74
2022/06/18 00:41:05;;;;;;;13.43;7.60;;;22.90;28.40;;;;;;5045337;28;20450;-73
2022/06/18 00:43:39;;;;;;;8.30;6.67;;;22.80;29.30;;;;;;5047067;28;20535;-74
2022/06/18 00:46:25;;;;;;;10.87;7.07;;;22.60;29.80;;;;;;5041250;28;20439;-73
2022/06/18 00:48:53;;;;;;;11.13;6.60;;;22.60;29.70;;;;;;5034814;28;20898;-75
2022/06/18 00:51:30;;;;;;;10.03;6.27;;;22.50;29.70;;;;;;5043097;28;20434;-74
2022/06/18 00:54:11;;;;;;;9.83;6.00;;;22.50;29.60;;;;;;5043553;28;20483;-72
2022/06/18 00:56:54;;;;;;;7.73;6.07;;;22.60;29.40;;;;;;5045875;28;20950;-74
2022/06/18 00:59:35;;;;;;;14.50;6.70;;;22.60;29.70;;;;;;5051678;28;20399;-74
2022/06/18 01:02:01;;;;;;;9.93;6.63;;;22.60;29.80;;;;;;5040502;28;20426;-73
2022/06/18 01:04:32;;;;;;;8.57;5.90;;;22.50;30.00;;;;;;5052295;28;20409;-74
2022/06/18 01:07:15;;;;;;;13.77;6.27;;;22.60;30.70;;;;;;5052719;28;20801;-72
2022/06/18 01:09:41;;;;;;;14.80;6.80;;;22.60;30.80;;;;;;5041643;28;20442;-75
2022/06/18 01:12:09;;;;;;;13.70;6.07;;;22.70;30.20;;;;;;5049089;28;20499;-74
2022/06/18 01:14:36;;;;;;;8.53;6.50;;;22.70;31.00;;;;;;5045504;28;21021;-73
2022/06/18 01:17:04;;;;;;;15.83;6.20;;;22.60;30.70;;;;;;5040548;28;20459;-74
2022/06/18 01:19:38;;;;;;;8.13;6.40;;;22.50;30.90;;;;;;5034916;28;20496;-73
2022/06/18 01:22:04;;;;;;;10.00;5.87;;;22.40;31.40;;;;;;5041825;28;20429;-73
2022/06/18 01:24:35;;;;;;;15.13;6.77;;;22.40;33.30;;;;;;5042120;28;20439;-72
2022/06/18 01:27:01;;;;;;;10.90;6.63;;;22.40;32.20;;;;;;5039999;28;20674;-73
2022/06/18 01:29:27;;;;;;;10.73;7.80;;;22.20;31.50;;;;;;5032413;28;20475;-73
2022/06/18 01:31:52;;;;;;;26.53;10.30;;;22.10;31.70;;;;;;5041617;28;20240;-72
2022/06/18 01:34:20;;;;;;;14.47;10.10;;;22.00;32.60;;;;;;5046155;28;20181;-74
2022/06/18 01:36:46;;;;;;;12.87;8.60;;;22.10;32.80;;;;;;5031879;28;20190;-73
2022/06/18 01:39:17;;;;;;;12.77;8.63;;;22.10;33.10;;;;;;5035496;28;20438;-74
2022/06/18 01:41:50;;;;;;;18.03;8.60;;;22.20;32.40;;;;;;5041909;28;20445;-73
2022/06/18 01:44:34;;;;;;;9.07;7.60;;;22.30;32.30;;;;;;5047909;28;20527;-73
2022/06/18 01:47:06;;;;;;;10.83;6.73;;;22.20;33.00;;;;;;5031852;28;20787;-73
2022/06/18 01:49:38;;;;;;;9.83;6.30;;;22.10;33.40;;;;;;5031972;28;20487;-73
2022/06/18 01:52:06;;;;;;;8.93;6.20;;;22.00;32.00;;;;;;5031026;28;20411;-73
2022/06/18 01:54:38;;;;;;;12.60;6.03;;;21.90;32.00;;;;;;5045049;28;20468;-73
2022/06/18 01:57:11;;;;;;;9.50;6.20;;;21.80;31.80;;;;;;5049206;28;20430;-73
2022/06/18 01:59:43;;;;;;;9.60;6.23;;;21.70;32.00;;;;;;5051276;28;20386;-73
2022/06/18 02:02:08;;;;;;;7.43;6.47;;;21.80;32.00;;;;;;5050473;28;20433;-73
2022/06/18 02:04:34;;;;;;;8.10;6.17;;;21.70;32.30;;;;;;5046864;28;20892;-73
2022/06/18 02:07:02;;;;;;;9.90;6.27;;;21.70;31.90;;;;;;5036987;28;20574;-74
2022/06/18 02:09:48;;;;;;;11.03;6.20;;;21.70;32.10;;;;;;5039487;28;20405;-73
2022/06/18 02:12:20;;;;;;;7.87;5.63;;;21.60;32.50;;;;;;5038144;28;20999;-73
2022/06/18 02:14:50;;;;;;;11.23;6.20;;;21.70;33.60;;;;;;5046191;28;20437;-73
2022/06/18 02:17:18;;;;;;;9.87;6.40;;;21.60;32.50;;;;;;5050209;28;20543;-73
2022/06/18 02:19:58;;;;;;;13.97;6.13;;;21.70;34.80;;;;;;5050148;28;20529;-73
2022/06/18 02:22:37;;;;;;;7.60;5.90;;;21.70;32.80;;;;;;5039606;28;20417;-73
2022/06/18 02:25:03;;;;;;;8.60;5.87;;;21.80;32.80;;;;;;5044123;28;20451;-73
2022/06/18 02:27:28;;;;;;;11.10;6.30;;;21.70;32.70;;;;;;5041980;28;20448;-73
2022/06/18 02:29:55;;;;;;;9.40;6.00;;;21.60;33.10;;;;;;5051431;28;20476;-73
2022/06/18 02:32:31;;;;;;;11.50;6.37;;;21.30;34.50;;;;;;5046817;28;20661;-73
2022/06/18 02:34:57;;;;;;;9.57;6.07;;;21.30;34.60;;;;;;5044577;28;20469;-73
2022/06/18 02:37:26;;;;;;;9.23;6.20;;;21.10;34.60;;;;;;5047385;28;20500;-73
2022/06/18 02:40:00;;;;;;;7.10;6.20;;;21.30;34.00;;;;;;5038306;28;20275;-74
2022/06/18 02:42:34;;;;;;;9.07;6.33;;;21.20;35.20;;;;;;5031062;28;20421;-73
2022/06/18 02:45:04;;;;;;;6.90;5.40;;;21.30;34.50;;;;;;5037788;28;20442;-74
2022/06/18 02:47:29;;;;;;;9.27;6.30;;;21.20;34.30;;;;;;5041155;28;20450;-73
2022/06/18 02:50:01;;;;;;;8.80;5.80;;;21.30;34.10;;;;;;5051298;28;20487;-74
2022/06/18 02:52:35;;;;;;;9.93;6.60;;;21.50;34.10;;;;;;5051013;28;20676;-73
2022/06/18 02:55:25;;;;;;;10.67;6.50;;;21.40;34.70;;;;;;5048497;28;20446;-73
2022/06/18 02:57:55;;;;;;;9.53;6.20;;;21.40;34.50;;;;;;5040001;28;20441;-73
2022/06/18 03:00:21;;;;;;;7.40;5.70;;;21.70;33.30;;;;;;5036366;28;20522;-72
2022/06/18 03:02:47;;;;;;;7.80;6.17;;;21.50;34.70;;;;;;5039003;28;20408;-74
2022/06/18 03:05:25;;;;;;;10.77;6.20;;;21.40;35.80;;;;;;5047243;28;21835;-73
2022/06/18 03:07:51;;;;;;;9.03;6.17;;;21.40;36.00;;;;;;5039555;28;20169;-73
2022/06/18 03:13:03;;;;;;;10.93;6.90;;;21.30;35.80;;;;;;5051009;28;20533;-73
2022/06/18 03:15:30;;;;;;;10.23;6.27;;;21.20;34.50;;;;;;5049594;28;20542;-72
2022/06/18 03:17:57;;;;;;;8.60;6.60;;;21.10;34.30;;;;;;5047260;28;20476;-73
2022/06/18 03:20:30;;;;;;;9.97;6.90;;;21.00;34.60;;;;;;5042012;28;20415;-73
2022/06/18 03:22:56;;;;;;;9.57;6.57;;;20.90;35.10;;;;;;5034417;28;20969;-73
2022/06/18 03:25:22;;;;;;;15.40;7.90;;;20.80;35.00;;;;;;5034339;28;20415;-73
2022/06/18 03:27:48;;;;;;;13.70;9.50;;;20.80;35.30;;;;;;5051278;28;20445;-73
2022/06/18 03:30:13;;;;;;;12.30;9.23;;;20.60;35.90;;;;;;5040260;28;20240;-72
2022/06/18 03:32:39;;;;;;;16.00;9.27;;;20.60;36.30;;;;;;5047775;28;20696;-74
2022/06/18 03:35:06;;;;;;;12.43;8.00;;;20.60;36.60;;;;;;5045895;28;20717;-73
2022/06/18 03:37:32;;;;;;;10.90;6.50;;;20.60;36.30;;;;;;5053605;28;20180;-73
2022/06/18 03:39:57;;;;;;;28.33;7.43;;;20.70;35.80;;;;;;5046359;28;20479;-74
2022/06/18 03:42:23;;;;;;;9.07;7.20;;;20.60;35.10;;;;;;5053432;28;20194;-74
2022/06/18 03:44:48;;;;;;;13.50;6.77;;;20.70;35.70;;;;;;5044508;28;20191;-73
2022/06/18 03:47:14;;;;;;;9.67;6.07;;;20.50;35.70;;;;;;5036771;28;20682;-74
2022/06/18 03:49:40;;;;;;;7.90;6.53;;;20.90;34.40;;;;;;5043742;28;20198;-72
2022/06/18 03:52:08;;;;;;;7.43;6.30;;;21.10;35.50;;;;;;5049394;28;20277;-72
2022/06/18 03:54:34;;;;;;;14.83;6.63;;;21.00;35.80;;;;;;5053895;28;20411;-73
2022/06/18 03:56:59;;;;;;;9.87;6.30;;;20.90;36.00;;;;;;5052464;28;20454;-73
2022/06/18 03:59:25;;;;;;;9.03;6.50;;;20.70;36.60;;;;;;5049624;28;20267;-73
2022/06/18 04:01:51;;;;;;;9.30;6.27;;;20.70;37.30;;;;;;5037941;28;20182;-74
2022/06/18 04:04:17;;;;;;;8.17;6.13;;;20.70;36.40;;;;;;5043205;28;20237;-73
2022/06/18 04:06:44;;;;;;;11.13;7.20;;;20.70;36.40;;;;;;5033932;28;20275;-73
2022/06/18 04:09:10;;;;;;;15.00;7.00;;;20.80;36.20;;;;;;5033947;28;20413;-74
2022/06/18 04:11:36;;;;;;;9.13;6.20;;;20.90;37.30;;;;;;5033583;28;20407;-73
2022/06/18 04:14:03;;;;;;;16.63;6.90;;;20.90;36.00;;;;;;5048224;28;20481;-73
2022/06/18 04:16:29;;;;;;;8.83;6.53;;;20.90;35.70;;;;;;5034844;28;20540;-72
2022/06/18 04:18:54;;;;;;;10.90;6.83;;;20.90;34.60;;;;;;5045446;28;20453;-73
2022/06/18 04:21:20;;;;;;;11.10;6.80;;;21.10;35.70;;;;;;5033356;28;20725;-72
2022/06/18 04:23:45;;;;;;;9.40;7.07;;;21.00;36.00;;;;;;5043505;28;20191;-73
2022/06/18 04:26:12;;;;;;;9.57;7.23;;;21.00;34.90;;;;;;5045079;28;20211;-73
2022/06/18 04:28:38;;;;;;;8.63;7.03;;;21.00;34.90;;;;;;5039579;28;20180;-73
2022/06/18 04:31:04;;;;;;;8.67;6.47;;;20.90;34.30;;;;;;5043520;28;20817;-73
2022/06/18 04:33:30;;;;;;;18.83;6.70;;;21.00;34.80;;;;;;5043124;28;20281;-72
2022/06/18 04:35:57;;;;;;;8.27;6.77;;;21.00;34.30;;;;;;5045177;28;20467;-75
2022/06/18 04:38:24;;;;;;;7.93;6.47;;;16.50;30.40;;;;;;5041615;28;20181;-74
2022/06/18 04:40:50;;;;;;;8.70;7.27;;;21.10;34.70;;;;;;5036018;28;20463;-74
2022/06/18 04:43:16;;;;;;;11.37;7.30;;;21.40;35.50;;;;;;5042211;28;20457;-73
2022/06/18 04:45:41;;;;;;;10.30;7.27;;;21.40;33.00;;;;;;5050914;28;20216;-73
2022/06/18 04:48:07;;;;;;;7.80;6.43;;;21.30;34.50;;;;;;5044629;28;20423;-74
2022/06/18 04:50:37;;;;;;;10.80;6.77;;;21.40;33.90;;;;;;5053064;28;20192;-74
2022/06/18 04:53:03;;;;;;;11.30;6.50;;;21.40;33.20;;;;;;5052972;28;20461;-74
2022/06/18 04:55:29;;;;;;;10.63;6.50;;;21.20;33.70;;;;;;5048889;28;20454;-75
2022/06/18 04:57:55;;;;;;;8.07;6.20;;;21.60;32.50;;;;;;5044752;28;21107;-74
2022/06/18 05:00:21;;;;;;;8.30;6.53;;;21.70;33.20;;;;;;5032458;28;20178;-73
2022/06/18 05:02:46;;;;;;;9.10;6.20;;;21.80;34.10;;;;;;5032720;28;20651;-73
2022/06/18 05:05:25;;;;;;;7.53;6.43;;;21.90;34.30;;;;;;5042800;28;20526;-74
2022/06/18 05:07:51;;;;;;;9.00;6.40;;;21.90;34.60;;;;;;5044414;28;20542;-75
2022/06/18 05:10:18;;;;;;;10.00;6.37;;;22.00;33.70;;;;;;5051754;28;20430;-74
2022/06/18 05:12:44;;;;;;;10.47;6.10;;;22.10;32.80;;;;;;5052215;28;20534;-75
2022/06/18 05:15:14;;;;;;;11.93;6.33;;;22.30;33.00;;;;;;5051308;28;20752;-75
2022/06/18 05:17:44;;;;;;;8.40;6.30;;;22.30;33.50;;;;;;5045130;28;20446;-75
2022/06/18 05:20:21;;;;;;;9.17;6.10;;;22.30;32.40;;;;;;5046064;28;20460;-74
2022/06/18 05:22:47;;;;;;;10.10;6.43;;;22.60;30.60;;;;;;5039268;28;20445;-73
2022/06/18 05:25:14;;;;;;;7.97;6.37;;;22.70;29.70;;;;;;5045850;28;20452;-73
2022/06/18 05:27:40;;;;;;;11.13;6.40;;;22.60;30.10;;;;;;5048713;28;20532;-73
2022/06/18 05:30:09;;;;;;;9.50;6.10;;;22.60;30.00;;;;;;5039019;28;20445;-73
2022/06/18 05:32:35;;;;;;;11.73;6.70;;;22.50;30.00;;;;;;5043262;28;20863;-75
2022/06/18 05:35:01;;;;;;;12.30;6.90;;;22.50;30.00;;;;;;5043317;28;20515;-75
2022/06/18 05:37:29;;;;;;;14.00;6.50;;;22.30;30.70;;;;;;5041716;28;20215;-75
2022/06/18 05:39:55;;;;;;;9.20;6.50;;;22.40;30.30;;;;;;5041735;28;20634;-74
2022/06/18 05:42:21;;;;;;;7.57;6.20;;;22.60;30.40;;;;;;5039541;28;20447;-74
2022/06/18 05:44:48;;;;;;;8.40;6.47;;;22.80;29.60;;;;;;5045596;28;20441;-72
2022/06/18 05:47:22;;;;;;;9.40;5.90;;;22.50;30.00;;;;;;5049206;28;20662;-72
2022/06/18 05:49:49;;;;;;;10.10;6.00;;;22.70;30.40;;;;;;5045080;28;20486;-73
2022/06/18 05:52:15;;;;;;;9.37;6.67;;;22.70;29.90;;;;;;5042041;28;20433;-72
2022/06/18 05:54:40;;;;;;;8.47;6.63;;;22.60;30.30;;;;;;5049720;28;20446;-73
2022/06/18 05:57:07;;;;;;;9.17;6.73;;;22.80;29.80;;;;;;5050754;28;20883;-72
2022/06/18 05:59:33;;;;;;;9.57;6.30;;;22.70;30.10;;;;;;5043811;28;20248;-73
2022/06/18 06:01:58;;;;;;;17.97;6.90;;;22.70;30.30;;;;;;5051606;28;20416;-74
2022/06/18 06:04:25;;;;;;;9.40;6.03;;;22.50;30.70;;;;;;5047052;28;20437;-74
2022/06/18 06:06:52;;;;;;;12.70;6.50;;;22.60;30.50;;;;;;5039656;28;20243;-74
2022/06/18 06:12:11;;;;;;;9.67;6.80;;;22.50;31.50;;;;;;5021279;28;20496;-75
2022/06/18 06:14:38;;;;;;;8.93;6.00;;;22.80;31.50;;;;;;5035187;28;20493;-74
2022/06/18 06:17:05;;;;;;;8.40;6.00;;;22.70;31.70;;;;;;5048435;28;20519;-73
2022/06/18 06:19:31;;;;;;;9.83;5.97;;;22.60;32.30;;;;;;5042451;28;20479;-73
2022/06/18 06:21:57;;;;;;;9.23;6.70;;;22.40;33.00;;;;;;5031510;28;20451;-73
2022/06/18 06:24:22;;;;;;;8.50;6.40;;;22.20;33.50;;;;;;5038356;28;20195;-72
2022/06/18 06:26:48;;;;;;;6.10;5.63;;;22.30;33.00;;;;;;5051611;28;20565;-73
2022/06/18 06:29:14;;;;;;;7.70;5.87;;;22.20;33.00;;;;;;5051337;28;20231;-73
2022/06/18 06:31:40;;;;;;;12.10;6.80;;;22.50;32.20;;;;;;5050706;28;20433;-73
2022/06/18 06:34:05;;;;;;;12.60;6.23;;;22.70;31.00;;;;;;5051231;28;20203;-73
2022/06/18 06:36:31;;;;;;;8.83;6.67;;;22.90;31.40;;;;;;5051120;28;20201;-73
2022/06/18 06:38:56;;;;;;;8.87;7.50;;;23.10;30.40;;;;;;5041987;28;20183;-72
2022/06/18 06:41:25;;;;;;;9.57;7.03;;;23.60;30.70;;;;;;5050810;28;20201;-72
2022/06/18 06:43:50;;;;;;;8.47;7.27;;;23.70;30.80;;;;;;5041779;28;20238;-73
2022/06/18 06:46:18;;;;;;;9.30;6.63;;;23.60;30.70;;;;;;5039802;28;20530;-73
2022/06/18 06:48:44;;;;;;;15.93;7.70;;;23.70;29.60;;;;;;5045508;28;20184;-74
2022/06/18 06:51:23;;;;;;;11.47;7.17;;;24.00;29.30;;;;;;5046080;28;20433;-74
2022/06/18 06:53:49;;;;;;;14.67;7.50;;;23.90;29.80;;;;;;5048983;28;20465;-73
2022/06/18 06:59:02;;;;;;;9.43;6.60;;;24.40;29.00;;;;;;5053185;28;20476;-75
2022/06/18 07:01:28;;;;;;;10.13;7.50;;;24.30;29.40;;;;;;5048939;28;20450;-73
2022/06/18 07:03:54;;;;;;;9.57;6.83;;;24.30;29.00;;;;;;5049947;28;20465;-75
2022/06/18 07:06:20;;;;;;;11.70;6.57;;;24.20;29.00;;;;;;5046586;28;20504;-74
2022/06/18 07:08:46;;;;;;;11.77;7.27;;;23.80;29.90;;;;;;5040759;28;20184;-74
2022/06/18 07:11:13;;;;;;;8.93;6.90;;;23.90;30.00;;;;;;5048000;28;20487;-74
2022/06/18 07:13:39;;;;;;;7.87;6.20;;;24.50;29.60;;;;;;5047073;28;21050;-73
2022/06/18 07:16:05;;;;;;;10.50;6.33;;;24.50;28.90;;;;;;5045509;28;20474;-72
2022/06/18 07:18:35;;;;;;;9.23;6.87;;;24.40;29.10;;;;;;5053528;28;20895;-73
2022/06/18 07:21:02;;;;;;;11.40;7.07;;;24.50;29.40;;;;;;5047214;28;20433;-74
2022/06/18 07:23:29;;;;;;;18.70;7.00;;;24.60;29.40;;;;;;5039741;28;21286;-74
2022/06/18 07:25:55;;;;;;;10.43;7.70;;;24.80;29.00;;;;;;5047341;28;20888;-74
2022/06/18 07:28:21;;;;;;;9.03;6.77;;;24.80;29.40;;;;;;5035033;28;20447;-75
2022/06/18 07:30:46;;;;;;;12.00;6.70;;;24.80;29.40;;;;;;5045485;28;20184;-76
2022/06/18 07:33:21;;;;;;;10.63;8.10;;;24.90;29.50;;;;;;5039648;28;20329;-75
2022/06/18 07:35:47;;;;;;;10.13;7.53;;;24.90;29.40;;;;;;5044857;28;20454;-74
2022/06/18 07:38:13;;;;;;;10.00;7.90;;;25.00;29.00;;;;;;5046281;28;20434;-74
2022/06/18 07:40:47;;;;;;;7.90;7.10;;;25.00;29.60;;;;;;5047993;28;20487;-73
2022/06/18 07:43:35;;;;;;;9.07;7.00;;;25.00;29.60;;;;;;5042239;28;20197;-73
2022/06/18 07:46:04;;;;;;;11.20;7.83;;;25.00;29.50;;;;;;5050035;28;20825;-75
2022/06/18 07:48:30;;;;;;;13.13;7.27;;;25.30;29.00;;;;;;5040057;28;20460;-75
2022/06/18 07:50:55;;;;;;;13.13;7.70;;;25.50;29.20;;;;;;5048160;28;20528;-75
2022/06/18 07:53:23;;;;;;;12.00;7.37;;;25.90;28.40;;;;;;5044186;28;20906;-73
2022/06/18 07:55:49;;;;;;;10.80;8.20;;;25.80;28.30;;;;;;5043899;28;20219;-74
2022/06/18 07:58:15;;;;;;;10.40;6.90;;;26.40;27.40;;;;;;5050257;28;20410;-74
2022/06/18 08:00:42;;;;;;;14.67;7.30;;;27.00;26.70;;;;;;5049986;28;20426;-75
2022/06/18 08:03:09;;;;;;;10.00;6.60;;;26.50;26.70;;;;;;5053511;28;20605;-74
2022/06/18 08:05:36;;;;;;;11.50;7.33;;;26.80;26.70;;;;;;5053427;28;20988;-74
2022/06/18 08:08:03;;;;;;;10.50;7.73;;;26.80;27.20;;;;;;5051735;28;20934;-73
2022/06/18 08:10:30;;;;;;;10.13;7.43;;;26.70;27.30;;;;;;5044057;28;20439;-75
2022/06/18 08:12:55;;;;;;;18.47;7.30;;;26.70;28.00;;;;;;5045613;28;20462;-74
2022/06/18 08:15:21;;;;;;;19.13;8.10;;;27.00;27.00;;;;;;5049601;28;20415;-74
2022/06/18 08:17:47;;;;;;;11.37;6.80;;;27.00;26.20;;;;;;5033867;28;20184;-74
2022/06/18 08:20:13;;;;;;;7.27;6.30;;;26.90;26.20;;;;;;5032452;28;20430;-73
2022/06/18 08:22:42;;;;;;;11.20;7.50;;;27.10;25.50;;;;;;5033451;28;20195;-73
2022/06/18 08:25:10;;;;;;;9.80;7.80;;;27.20;25.70;;;;;;5051168;28;20441;-74
2022/06/18 08:27:36;;;;;;;10.57;7.10;;;27.10;26.10;;;;;;5053961;28;20410;-74
2022/06/18 08:30:04;;;;;;;15.10;7.30;;;27.20;26.20;;;;;;5053354;28;20415;-74
2022/06/18 08:32:30;;;;;;;11.67;6.97;;;27.40;25.60;;;;;;5053041;28;20554;-73
2022/06/18 08:34:55;;;;;;;8.27;6.37;;;27.90;25.60;;;;;;5052318;28;20926;-74
2022/06/18 08:37:22;;;;;;;12.40;7.17;;;28.10;24.10;;;;;;5034559;28;20209;-74
2022/06/18 08:39:48;;;;;;;9.50;6.83;;;27.80;23.80;;;;;;5033538;28;20172;-74
2022/06/18 08:42:27;;;;;;;7.53;6.80;;;28.00;24.40;;;;;;5033157;28;20762;-75
2022/06/18 08:45:23;;;;;;;10.90;6.53;;;27.60;24.80;;;;;;5036694;28;20180;-74
2022/06/18 08:48:19;;;;;;;12.57;6.50;;;28.30;24.60;;;;;;5040393;28;20415;-75
2022/06/18 08:51:11;;;;;;;8.33;6.60;;;28.30;24.10;;;;;;5032863;28;20395;-75
2022/06/18 08:54:04;;;;;;;8.63;6.60;;;28.50;24.70;;;;;;5032858;28;20537;-74
2022/06/18 08:56:54;;;;;;;13.60;6.10;;;28.50;23.20;;;;;;5044161;28;20450;-74
2022/06/18 08:59:46;;;;;;;7.97;6.20;;;29.10;25.30;;;;;;5053417;28;20767;-75
2022/06/18 09:02:35;;;;;;;16.47;6.80;;;29.50;22.90;;;;;;5034887;28;20427;-75
2022/06/18 09:05:27;;;;;;;13.10;6.73;;;29.10;21.50;;;;;;5032848;28;20411;-75
2022/06/18 09:08:11;;;;;;;11.63;6.47;;;28.40;23.20;;;;;;5050051;28;20464;-75
2022/06/18 09:10:40;;;;;;;7.57;6.03;;;28.60;25.30;;;;;;5052569;28;20398;-75
2022/06/18 09:13:17;;;;;;;10.30;5.93;;;28.90;21.00;;;;;;5052296;28;20824;-74
2022/06/18 09:15:53;;;;;;;11.60;6.00;;;28.60;20.60;;;;;;5051724;28;20504;-75
2022/06/18 09:18:31;;;;;;;12.40;5.37;;;28.50;20.20;;;;;;5050909;28;20432;-74
2022/06/18 09:21:01;;;;;;;6.53;5.60;;;28.60;18.90;;;;;;5042899;28;20525;-74
2022/06/18 09:23:29;;;;;;;7.03;5.60;;;28.80;21.00;;;;;;5032227;28;20939;-74
2022/06/18 09:25:58;;;;;;;12.83;6.10;;;29.30;20.40;;;;;;5032845;28;20431;-73
2022/06/18 09:28:35;;;;;;;7.90;5.97;;;29.10;21.20;;;;;;5049565;28;20434;-73
2022/06/18 09:31:27;;;;;;;7.47;6.33;;;29.00;21.60;;;;;;5043769;28;20528;-73
2022/06/18 09:34:05;;;;;;;8.67;6.03;;;29.70;20.70;;;;;;5039874;28;20484;-74
2022/06/18 09:36:37;;;;;;;10.23;6.00;;;30.30;18.70;;;;;;5039443;28;20455;-73
2022/06/18 09:39:08;;;;;;;9.13;5.60;;;29.50;20.10;;;;;;5040122;28;20415;-73
2022/06/18 09:41:48;;;;;;;6.20;5.40;;;29.50;20.40;;;;;;5036962;28;20434;-74
2022/06/18 09:44:39;;;;;;;15.87;5.60;;;29.80;20.40;;;;;;5045260;28;20538;-71
2022/06/18 09:47:19;;;;;;;11.03;5.80;;;30.00;19.60;;;;;;5039838;28;20446;-75
2022/06/18 09:49:46;;;;;;;8.67;5.70;;;29.80;19.40;;;;;;5038580;28;20429;-76
2022/06/18 09:52:36;;;;;;;7.90;5.23;;;30.00;19.90;;;;;;5038677;28;20475;-74
2022/06/18 09:55:28;;;;;;;20.93;6.13;;;30.60;19.30;;;;;;5044938;28;20537;-76
2022/06/18 09:57:56;;;;;;;13.43;5.90;;;31.00;20.50;;;;;;5043104;28;20863;-75
2022/06/18 10:00:28;;;;;;;8.10;5.73;;;31.40;17.60;;;;;;5038578;28;20813;-74
2022/06/18 10:03:02;;;;;;;6.57;5.10;;;31.30;18.40;;;;;;5046564;28;20827;-74
2022/06/18 10:08:36;;;;;;;7.70;5.43;;;31.60;18.60;;;;;;5045074;28;20434;-73
2022/06/18 10:11:09;;;;;;;7.13;5.80;;;31.80;17.20;;;;;;5039205;28;20474;-74
2022/06/18 10:13:46;;;;;;;8.30;5.57;;;31.50;18.60;;;;;;5048472;28;20553;-75
2022/06/18 10:16:35;;;;;;;6.70;5.70;;;32.00;19.30;;;;;;5037445;28;20861;-74
2022/06/18 10:19:01;;;;;;;9.13;5.30;;;31.60;17.30;;;;;;5040425;28;20913;-75
2022/06/18 10:21:50;;;;;;;6.87;5.50;;;30.70;18.30;;;;;;5042106;28;20444;-73
2022/06/18 10:24:32;;;;;;;13.90;5.33;;;30.90;18.40;;;;;;5045365;28;20294;-73
2022/06/18 10:27:13;;;;;;;8.90;5.60;;;30.90;18.70;;;;;;5048181;28;20795;-73
2022/06/18 10:29:50;;;;;;;11.07;5.63;;;30.60;18.10;;;;;;5034272;28;20443;-73
2022/06/18 10:32:39;;;;;;;11.77;5.97;;;30.50;17.90;;;;;;5031063;28;20929;-73
2022/06/18 10:35:39;;;;;;;11.67;5.17;;;30.70;18.70;;;;;;5030957;28;20399;-74
2022/06/18 10:38:36;;;;;;;9.20;5.80;;;31.40;18.00;;;;;;5031502;28;20895;-74
2022/06/18 10:41:20;;;;;;;13.23;5.70;;;31.60;16.90;;;;;;5030999;28;20450;-73
2022/06/18 10:43:58;;;;;;;11.03;5.10;;;31.90;16.60;;;;;;5030085;28;20444;-71
2022/06/18 10:46:24;;;;;;;8.90;5.40;;;31.70;16.90;;;;;;5029165;28;20430;-74
2022/06/18 10:48:56;;;;;;;9.17;4.93;;;32.30;15.60;;;;;;5030338;28;20823;-74
2022/06/18 10:51:28;;;;;;;7.90;5.60;;;32.40;16.30;;;;;;5039164;28;20541;-74
2022/06/18 10:54:00;;;;;;;12.33;5.10;;;33.10;16.20;;;;;;5031051;28;20461;-74
2022/06/18 10:56:33;;;;;;;10.43;4.70;;;33.60;16.60;;;;;;5030871;28;20502;-74
2022/06/18 10:59:00;;;;;;;7.80;5.30;;;33.70;16.60;;;;;;5031328;28;20502;-74
2022/06/18 11:01:44;;;;;;;6.80;5.50;;;34.00;15.30;;;;;;5044708;28;20422;-74
2022/06/18 11:04:23;;;;;;;16.43;5.27;;;33.70;14.90;;;;;;5050993;28;20771;-74
2022/06/18 11:06:56;;;;;;;12.13;5.23;;;33.40;14.70;;;;;;5051027;28;20925;-73
2022/06/18 11:09:26;;;;;;;7.63;4.80;;;33.40;14.70;;;;;;5051023;28;20925;-73
2022/06/18 11:11:59;;;;;;;12.83;5.47;;;33.40;14.40;;;;;;5051133;28;20959;-75
2022/06/18 11:14:25;;;;;;;16.77;5.50;;;33.40;13.60;;;;;;5051519;28;20938;-75
2022/06/18 11:16:55;;;;;;;10.13;4.97;;;33.90;13.60;;;;;;5050873;28;20473;-75
2022/06/18 11:19:33;;;;;;;12.83;5.53;;;34.30;15.50;;;;;;5051644;28;20410;-73
2022/06/18 11:22:21;;;;;;;14.80;5.33;;;33.40;14.30;;;;;;5050427;28;20414;-74
2022/06/18 11:24:57;;;;;;;12.80;5.10;;;34.30;14.50;;;;;;5050977;28;20432;-74
2022/06/18 11:27:27;;;;;;;7.23;5.03;;;34.70;13.60;;;;;;5051003;28;20766;-74
2022/06/18 11:29:54;;;;;;;14.23;5.23;;;34.80;12.30;;;;;;5049524;28;20418;-74
2022/06/18 11:32:32;;;;;;;11.97;5.50;;;35.20;15.00;;;;;;5049776;28;20429;-74
2022/06/18 11:35:03;;;;;;;30.50;5.63;;;35.70;13.40;;;;;;5050586;28;20461;-73
2022/06/18 11:37:30;;;;;;;8.10;4.80;;;36.20;12.50;;;;;;5050450;28;20805;-74
2022/06/18 11:40:03;;;;;;;8.47;5.30;;;37.30;11.40;;;;;;5052878;28;20414;-74
2022/06/18 11:42:49;;;;;;;9.33;4.90;;;37.20;9.60;;;;;;5054151;28;20418;-74
2022/06/18 11:45:35;;;;;;;13.13;5.20;;;36.30;10.70;;;;;;5034262;28;20446;-73
2022/06/18 11:48:20;;;;;;;13.43;5.47;;;35.70;11.10;;;;;;5034228;28;20410;-73
2022/06/18 11:51:01;;;;;;;8.10;4.73;;;35.10;11.10;;;;;;5034090;28;20391;-74
2022/06/18 11:53:49;;;;;;;11.40;4.53;;;35.60;11.90;;;;;;5035240;28;20447;-74
2022/06/18 11:56:44;;;;;;;12.97;4.97;;;36.40;11.20;;;;;;5042374;28;20450;-74
2022/06/18 11:59:26;;;;;;;11.50;4.67;;;37.60;9.80;;;;;;5052899;28;20406;-74
2022/06/18 12:02:15;;;;;;;12.37;5.40;;;37.40;11.50;;;;;;5053634;28;20447;-72
2022/06/18 12:04:53;;;;;;;14.37;5.03;;;37.60;8.70;;;;;;5053222;28;20418;-74
2022/06/18 12:07:32;;;;;;;12.10;5.20;;;37.60;9.30;;;;;;5053933;28;20793;-74
2022/06/18 12:09:58;;;;;;;10.50;5.03;;;37.50;9.50;;;;;;5054143;28;20638;-74
2022/06/18 12:12:28;;;;;;;11.50;4.97;;;38.10;9.20;;;;;;5053384;28;20398;-74
2022/06/18 12:15:18;;;;;;;18.60;5.40;;;39.00;11.00;;;;;;5052846;28;20156;-74
2022/06/18 12:17:55;;;;;;;16.70;4.83;;;40.00;10.10;;;;;;5053515;28;20764;-74
2022/06/18 12:20:52;;;;;;;14.33;4.80;;;40.40;9.20;;;;;;5053744;28;20417;-74
2022/06/18 12:23:21;;;;;;;16.43;5.10;;;40.00;7.10;;;;;;5053357;28;20477;-74
2022/06/18 12:26:03;;;;;;;8.37;4.70;;;40.20;8.80;;;;;;5052784;28;20788;-74
2022/06/18 12:28:43;;;;;;;11.40;4.90;;;40.90;8.10;;;;;;5053631;28;20398;-74
2022/06/18 12:31:12;;;;;;;22.60;4.90;;;41.20;6.90;;;;;;5053451;28;20837;-75
2022/06/18 12:34:01;;;;;;;25.03;5.17;;;41.10;6.70;;;;;;5052614;28;20493;-74
2022/06/18 12:36:45;;;;;;;22.07;5.10;;;41.20;5.30;;;;;;5033628;28;20938;-75
2022/06/18 12:39:32;;;;;;;24.50;5.80;;;40.20;6.50;;;;;;5033834;28;20457;-74
2022/06/18 12:42:18;;;;;;;24.07;4.80;;;39.50;7.40;;;;;;5033515;28;20395;-74
2022/06/18 12:45:11;;;;;;;23.97;5.03;;;38.80;7.40;;;;;;5038324;28;20886;-74
2022/06/18 12:47:50;;;;;;;26.07;5.20;;;38.30;7.20;;;;;;5038438;28;20513;-74
2022/06/18 12:50:42;;;;;;;38.77;5.10;;;38.50;8.70;;;;;;5052270;28;20412;-74
2022/06/18 12:54:02;;;;;;;23.47;5.53;;;38.80;7.90;;;;;;5052760;28;20442;-74
2022/06/18 12:56:42;;;;;;;23.10;5.57;;;38.60;6.70;;;;;;4978828;28;20545;-73
2022/06/18 12:59:16;;;;;;;27.67;6.50;;;38.30;6.70;;;;;;4971934;28;20413;-74
2022/06/18 13:02:02;;;;;;;33.03;6.33;;;38.20;9.10;;;;;;4971672;28;20421;-73
2022/06/18 13:04:27;;;;;;;29.47;5.73;;;38.10;8.10;;;;;;4971832;28;20425;-74
2022/06/18 13:07:07;;;;;;;50.70;6.60;;;37.50;6.70;;;;;;4981985;28;20460;-74
2022/06/18 13:10:09;;;;;;;25.50;5.30;;;37.80;6.90;;;;;;4991201;28;20562;-74
2022/06/18 13:12:45;;;;;;;30.17;5.93;;;38.30;4.70;;;;;;4990888;28;20949;-74
2022/06/18 13:15:15;;;;;;;40.07;5.43;;;38.30;6.40;;;;;;4990656;28;20413;-74
2022/06/18 13:17:46;;;;;;;16.87;4.60;;;38.30;6.30;;;;;;4987301;28;20429;-74
2022/06/18 13:20:20;;;;;;;34.77;5.20;;;38.80;6.40;;;;;;4991181;28;20417;-75
2022/06/18 13:22:46;;;;;;;42.47;6.90;;;38.80;5.80;;;;;;4990684;28;20589;-74